createdAt,value
2023-02-01T00:01:10.490Z,3.49
2023-02-01T00:03:37.513Z,3.46
2023-02-01T00:06:04.570Z,3.46
2023-02-01T00:08:31.254Z,3.42
2023-02-01T00:11:03.436Z,3.33
2023-02-01T00:13:32.222Z,3.36
2023-02-01T00:16:23.638Z,3.34
2023-02-01T00:18:52.513Z,3.35
2023-02-01T00:21:21.386Z,3.43
2023-02-01T00:23:48.176Z,3.38
2023-02-01T00:26:23.333Z,3.48
2023-02-01T00:28:49.891Z,3.57
2023-02-01T00:31:16.589Z,3.57
2023-02-01T00:33:43.209Z,3.62
2023-02-01T00:36:10.731Z,3.73
2023-02-01T00:38:39.078Z,3.80
2023-02-01T00:41:18.497Z,3.79
2023-02-01T00:43:46.284Z,3.76
2023-02-01T00:46:14.807Z,3.74
2023-02-01T00:48:42.174Z,3.71
2023-02-01T00:51:12.522Z,3.73
2023-02-01T00:53:39.311Z,3.60
2023-02-01T00:56:07.089Z,3.67
2023-02-01T00:58:34.069Z,3.77
2023-02-01T01:01:11.031Z,3.76
2023-02-01T01:03:40.644Z,3.87
2023-02-01T01:06:16.018Z,3.93
2023-02-01T01:08:43.702Z,3.93
2023-02-01T01:11:13.424Z,3.92
2023-02-01T01:13:40.613Z,4.00
2023-02-01T01:16:08.597Z,3.91
2023-02-01T01:18:35.921Z,3.87
2023-02-01T01:21:04.689Z,3.92
2023-02-01T01:23:31.369Z,3.93
2023-02-01T01:25:58.109Z,4.03
2023-02-01T01:28:24.645Z,3.97
2023-02-01T01:30:51.150Z,3.98
2023-02-01T01:33:17.612Z,4.00
2023-02-01T01:35:44.132Z,4.00
2023-02-01T01:38:12.534Z,4.05
2023-02-01T01:40:39.621Z,4.06
2023-02-01T01:43:17.684Z,4.09
2023-02-01T01:45:44.736Z,4.08
2023-02-01T01:48:20.339Z,4.15
2023-02-01T01:50:56.024Z,4.14
2023-02-01T01:53:26.899Z,4.14
2023-02-01T01:55:55.541Z,4.19
2023-02-01T01:58:26.529Z,4.17
2023-02-01T02:00:55.112Z,4.16
2023-02-01T02:03:26.695Z,4.13
2023-02-01T02:05:56.423Z,4.16
2023-02-01T02:08:25.207Z,4.02
2023-02-01T02:11:01.568Z,4.01
2023-02-01T02:13:35.443Z,3.95
2023-02-01T02:16:18.703Z,3.92
2023-02-01T02:18:57.421Z,3.98
2023-02-01T02:21:42.677Z,3.88
2023-02-01T02:24:23.488Z,3.85
2023-02-01T02:26:57.563Z,3.81
2023-02-01T02:29:49.275Z,3.84
2023-02-01T02:32:52.883Z,3.78
2023-02-01T02:35:30.563Z,3.78
2023-02-01T02:38:22.940Z,3.84
2023-02-01T02:40:55.758Z,3.83
2023-02-01T02:43:45.055Z,3.79
2023-02-01T02:46:53.347Z,3.69
2023-02-01T02:49:22.660Z,3.63
2023-02-01T02:52:12.523Z,3.54
2023-02-01T02:54:47.429Z,3.55
2023-02-01T02:57:38.473Z,3.46
2023-02-01T03:00:28.584Z,3.48
2023-02-01T03:03:14.387Z,3.60
2023-02-01T03:05:45.205Z,3.56
2023-02-01T03:08:15.093Z,3.58
2023-02-01T03:11:08.988Z,3.51
2023-02-01T03:13:54.112Z,3.56
2023-02-01T03:16:34.079Z,3.57
2023-02-01T03:19:06.537Z,3.63
2023-02-01T03:21:39.276Z,3.69
2023-02-01T03:24:13.328Z,3.76
2023-02-01T03:26:46.071Z,3.76
2023-02-01T03:29:22.874Z,3.82
2023-02-01T03:31:50.010Z,3.87
2023-02-01T03:34:17.517Z,3.86
2023-02-01T03:36:58.944Z,3.88
2023-02-01T03:39:31.362Z,3.84
2023-02-01T03:42:01.542Z,3.81
2023-02-01T03:44:33.379Z,3.74
2023-02-01T03:47:05.998Z,3.70
2023-02-01T03:49:39.969Z,3.60
2023-02-01T03:52:10.107Z,3.55
2023-02-01T03:54:38.953Z,3.55
2023-02-01T03:57:10.921Z,3.57
2023-02-01T03:59:45.493Z,3.71
2023-02-01T04:02:12.823Z,3.62
2023-02-01T04:04:39.478Z,3.59
2023-02-01T04:07:06.147Z,3.55
2023-02-01T04:09:32.800Z,3.58
2023-02-01T04:11:59.383Z,3.61
2023-02-01T04:14:26.115Z,3.65
2023-02-01T04:16:52.737Z,3.53
2023-02-01T04:19:19.301Z,3.50
2023-02-01T04:21:46.275Z,3.46
2023-02-01T04:24:12.971Z,3.54
2023-02-01T04:26:39.652Z,3.47
2023-02-01T04:29:06.270Z,3.41
2023-02-01T04:31:33.218Z,3.29
2023-02-01T04:34:00.065Z,3.25
2023-02-01T04:36:26.797Z,3.27
2023-02-01T04:38:53.798Z,3.19
2023-02-01T04:41:21.449Z,3.24
2023-02-01T04:43:49.005Z,3.18
2023-02-01T04:46:16.015Z,3.26
2023-02-01T04:48:43.310Z,3.24
2023-02-01T04:51:11.202Z,3.28
2023-02-01T04:53:38.069Z,3.24
2023-02-01T04:56:05.482Z,3.35
2023-02-01T04:58:32.079Z,3.42
2023-02-01T05:00:58.746Z,3.42
2023-02-01T05:03:25.384Z,3.54
2023-02-01T05:05:54.771Z,3.51
2023-02-01T05:08:23.620Z,3.66
2023-02-01T05:10:50.297Z,3.62
2023-02-01T05:13:35.716Z,3.62
2023-02-01T05:16:02.840Z,3.67
2023-02-01T05:18:29.611Z,3.66
2023-02-01T05:20:56.376Z,3.64
2023-02-01T05:23:22.977Z,3.62
2023-02-01T05:25:49.654Z,3.65
2023-02-01T05:28:16.244Z,3.66
2023-02-01T05:30:42.843Z,3.77
2023-02-01T05:33:09.800Z,3.84
2023-02-01T05:35:36.440Z,3.86
2023-02-01T05:38:03.014Z,3.92
2023-02-01T05:40:29.766Z,3.96
2023-02-01T05:42:56.494Z,3.94
2023-02-01T05:45:23.215Z,3.99
2023-02-01T05:47:49.930Z,4.05
2023-02-01T05:50:17.776Z,4.12
2023-02-01T05:52:44.559Z,4.07
2023-02-01T05:55:11.154Z,3.98
2023-02-01T05:57:37.825Z,3.94
2023-02-01T06:00:05.716Z,3.85
2023-02-01T06:02:32.272Z,3.90
2023-02-01T06:04:58.879Z,4.04
2023-02-01T06:07:26.090Z,4.08
2023-02-01T06:09:53.739Z,4.14
2023-02-01T06:12:20.433Z,4.11
2023-02-01T06:14:47.013Z,4.14
2023-02-01T06:17:13.611Z,4.16
2023-02-01T06:19:41.734Z,4.16
2023-02-01T06:22:08.281Z,4.16
2023-02-01T06:24:35.006Z,4.13
2023-02-01T06:27:01.675Z,4.17
2023-02-01T06:29:28.348Z,4.18
2023-02-01T06:31:55.029Z,4.16
2023-02-01T06:34:23.486Z,4.21
2023-02-01T06:36:50.231Z,4.20
2023-02-01T06:39:17.332Z,4.22
2023-02-01T06:41:47.624Z,4.28
2023-02-01T06:44:14.395Z,4.18
2023-02-01T06:46:41.287Z,4.22
2023-02-01T06:49:08.867Z,4.25
2023-02-01T06:51:35.799Z,4.20
2023-02-01T06:54:02.693Z,4.18
2023-02-01T06:56:29.398Z,4.08
2023-02-01T06:58:56.170Z,3.93
2023-02-01T07:01:22.760Z,4.07
2023-02-01T07:03:52.585Z,4.02
2023-02-01T07:06:19.531Z,4.11
2023-02-01T07:08:46.567Z,4.14
2023-02-01T07:11:15.338Z,4.27
2023-02-01T07:13:41.867Z,4.28
2023-02-01T07:16:12.886Z,4.28
2023-02-01T07:18:39.889Z,4.29
2023-02-01T07:21:06.823Z,4.25
2023-02-01T07:23:33.786Z,4.25
2023-02-01T07:26:03.177Z,4.19
2023-02-01T07:28:32.122Z,4.24
2023-02-01T07:31:11.685Z,4.26
2023-02-01T07:33:38.742Z,4.31
2023-02-01T07:36:07.818Z,4.38
2023-02-01T07:38:35.310Z,4.30
2023-02-01T07:41:03.882Z,4.32
2023-02-01T07:43:30.656Z,4.42
2023-02-01T07:45:58.186Z,4.42
2023-02-01T07:48:26.402Z,4.43
2023-02-01T07:51:16.465Z,4.41
2023-02-01T07:53:44.338Z,4.47
2023-02-01T07:56:17.246Z,4.50
2023-02-01T07:58:44.200Z,4.46
2023-02-01T08:01:22.010Z,4.46
2023-02-01T08:03:50.341Z,4.46
2023-02-01T08:06:17.227Z,4.47
2023-02-01T08:08:46.484Z,4.52
2023-02-01T08:11:13.810Z,4.59
2023-02-01T08:13:41.161Z,4.59
2023-02-01T08:16:09.683Z,4.60
2023-02-01T08:18:37.822Z,4.59
2023-02-01T08:21:06.772Z,4.59
2023-02-01T08:23:34.751Z,4.54
2023-02-01T08:26:14.571Z,4.45
2023-02-01T08:28:44.469Z,4.28
2023-02-01T08:31:15.918Z,4.35
2023-02-01T08:33:44.442Z,4.30
2023-02-01T08:36:12.217Z,4.36
2023-02-01T08:38:40.559Z,4.38
2023-02-01T08:41:18.756Z,4.36
2023-02-01T08:43:45.638Z,4.40
2023-02-01T08:46:13.153Z,4.41
2023-02-01T08:48:39.992Z,4.37
2023-02-01T08:51:10.239Z,4.48
2023-02-01T08:53:37.803Z,4.44
2023-02-01T08:56:05.291Z,4.52
2023-02-01T08:58:32.010Z,4.61
2023-02-01T09:00:58.716Z,4.50
2023-02-01T09:03:25.496Z,4.63
2023-02-01T09:05:54.268Z,4.90
2023-02-01T09:08:21.578Z,4.82
2023-02-01T09:10:48.324Z,4.80
2023-02-01T09:13:14.921Z,4.82
2023-02-01T09:15:41.631Z,4.76
2023-02-01T09:18:08.328Z,4.65
2023-02-01T09:20:34.894Z,4.75
2023-02-01T09:23:01.533Z,4.86
2023-02-01T09:25:29.437Z,4.73
2023-02-01T09:27:56.245Z,4.52
2023-02-01T09:30:23.260Z,4.49
2023-02-01T09:32:50.290Z,4.52
2023-02-01T09:35:17.051Z,4.66
2023-02-01T09:37:43.606Z,4.69
2023-02-01T09:40:16.279Z,5.12
2023-02-01T09:43:22.358Z,5.42
2023-02-01T09:46:07.760Z,5.52
2023-02-01T09:48:38.679Z,5.70
2023-02-01T09:51:14.076Z,5.80
2023-02-01T09:53:44.310Z,5.53
2023-02-01T09:56:19.488Z,5.19
2023-02-01T09:58:48.738Z,5.51
2023-02-01T10:01:23.547Z,5.64
2023-02-01T10:04:56.319Z,5.50
2023-02-01T10:07:52.583Z,5.39
2023-02-01T10:10:42.106Z,5.80
2023-02-01T10:13:19.267Z,6.03
2023-02-01T10:16:04.228Z,6.33
2023-02-01T10:19:09.672Z,6.28
2023-02-01T10:21:51.755Z,6.53
2023-02-01T10:24:18.546Z,6.59
2023-02-01T10:27:02.849Z,6.67
2023-02-01T10:29:38.217Z,6.88
2023-02-01T10:32:12.925Z,6.30
2023-02-01T10:34:40.883Z,6.13
2023-02-01T10:37:30.760Z,6.23
2023-02-01T10:40:01.309Z,6.25
2023-02-01T10:42:30.114Z,6.51
2023-02-01T10:45:03.159Z,6.54
2023-02-01T10:47:29.857Z,6.69
2023-02-01T10:50:16.823Z,6.73
2023-02-01T10:52:53.949Z,6.47
2023-02-01T10:55:29.379Z,6.63
2023-02-01T10:58:01.956Z,6.65
2023-02-01T11:00:34.918Z,6.79
2023-02-01T11:03:01.558Z,7.05
2023-02-01T11:05:28.337Z,7.21
2023-02-01T11:07:56.272Z,7.10
2023-02-01T11:10:42.503Z,7.03
2023-02-01T11:13:18.197Z,6.76
2023-02-01T11:15:49.151Z,7.03
2023-02-01T11:18:29.125Z,7.01
2023-02-01T11:20:56.775Z,6.82
2023-02-01T11:23:26.690Z,6.66
2023-02-01T11:26:01.925Z,6.55
2023-02-01T11:28:33.479Z,6.47
2023-02-01T11:31:08.657Z,6.51
2023-02-01T11:33:38.881Z,6.49
2023-02-01T11:36:13.124Z,6.52
2023-02-01T11:38:39.554Z,6.49
2023-02-01T11:41:41.389Z,6.36
2023-02-01T11:44:21.595Z,6.24
2023-02-01T11:46:48.207Z,6.19
2023-02-01T11:49:28.203Z,6.18
2023-02-01T11:52:24.736Z,6.36
2023-02-01T11:55:28.962Z,6.54
2023-02-01T11:58:04.485Z,6.44
2023-02-01T12:00:46.381Z,6.29
2023-02-01T12:03:42.962Z,6.18
2023-02-01T12:06:32.113Z,6.09
2023-02-01T12:09:24.704Z,6.17
2023-02-01T12:12:03.356Z,6.08
2023-02-01T12:14:57.661Z,6.18
2023-02-01T12:17:30.436Z,6.20
2023-02-01T12:19:57.034Z,6.15
2023-02-01T12:23:00.750Z,6.17
2023-02-01T12:25:48.159Z,6.27
2023-02-01T12:28:26.710Z,6.42
2023-02-01T12:31:06.261Z,6.38
2023-02-01T12:33:55.467Z,6.22
2023-02-01T12:36:44.186Z,6.12
2023-02-01T12:39:32.744Z,6.05
2023-02-01T12:42:22.002Z,6.00
2023-02-01T12:45:00.872Z,5.84
2023-02-01T12:47:34.171Z,5.90
2023-02-01T12:50:03.631Z,5.86
2023-02-01T12:52:39.082Z,5.89
2023-02-01T12:55:24.738Z,5.94
2023-02-01T12:58:05.741Z,5.83
2023-02-01T13:00:47.073Z,5.80
2023-02-01T13:03:27.286Z,5.77
2023-02-01T13:06:03.793Z,5.85
2023-02-01T13:08:42.144Z,5.90
2023-02-01T13:11:29.306Z,5.86
2023-02-01T13:14:07.914Z,5.89
2023-02-01T13:16:44.213Z,5.84
2023-02-01T13:19:20.107Z,5.89
2023-02-01T13:21:57.895Z,5.90
2023-02-01T13:24:32.742Z,5.90
2023-02-01T13:26:59.479Z,5.90
2023-02-01T13:29:28.060Z,5.84
2023-02-01T13:32:06.284Z,5.89
2023-02-01T13:34:55.246Z,5.87
2023-02-01T13:37:47.462Z,5.90
2023-02-01T13:40:38.342Z,5.96
2023-02-01T13:43:15.178Z,5.81
2023-02-01T13:45:48.914Z,5.81
2023-02-01T13:48:22.991Z,5.86
2023-02-01T13:50:56.085Z,5.95
2023-02-01T13:53:35.096Z,5.90
2023-02-01T13:56:07.281Z,5.96
2023-02-01T13:58:42.632Z,5.95
2023-02-01T14:01:24.600Z,6.03
2023-02-01T14:03:55.396Z,6.08
2023-02-01T14:06:28.677Z,6.07
2023-02-01T14:09:15.030Z,6.03
2023-02-01T14:11:52.549Z,5.88
2023-02-01T14:14:19.126Z,5.95
2023-02-01T14:17:10.892Z,6.24
2023-02-01T14:19:38.699Z,6.33
2023-02-01T14:22:27.145Z,6.32
2023-02-01T14:24:58.889Z,6.14
2023-02-01T14:27:31.948Z,6.01
2023-02-01T14:30:01.672Z,6.01
2023-02-01T14:32:48.464Z,5.87
2023-02-01T14:35:35.375Z,5.74
2023-02-01T14:38:08.046Z,5.72
2023-02-01T14:40:36.957Z,5.74
2023-02-01T14:43:03.815Z,5.69
2023-02-01T14:45:30.561Z,5.77
2023-02-01T14:48:05.985Z,5.66
2023-02-01T14:50:38.710Z,5.62
2023-02-01T14:53:11.654Z,5.67
2023-02-01T14:55:46.676Z,5.59
2023-02-01T14:58:37.490Z,5.52
2023-02-01T15:01:16.078Z,5.51
2023-02-01T15:03:49.793Z,5.48
2023-02-01T15:06:31.536Z,5.51
2023-02-01T15:09:08.607Z,5.53
2023-02-01T15:12:06.429Z,5.58
2023-02-01T15:14:39.126Z,5.63
2023-02-01T15:17:22.960Z,5.51
2023-02-01T15:20:00.999Z,5.61
2023-02-01T15:22:29.674Z,5.55
2023-02-01T15:25:00.876Z,5.43
2023-02-01T15:27:32.369Z,5.37
2023-02-01T15:30:16.819Z,5.39
2023-02-01T15:32:43.290Z,5.31
2023-02-01T15:35:38.753Z,5.33
2023-02-01T15:38:24.648Z,5.25
2023-02-01T15:41:01.504Z,5.34
2023-02-01T15:43:31.255Z,5.38
2023-02-01T15:46:00.362Z,5.39
2023-02-01T15:48:31.018Z,5.38
2023-02-01T15:50:57.679Z,5.29
2023-02-01T15:53:26.324Z,5.38
2023-02-01T15:55:56.123Z,5.39
2023-02-01T15:58:24.863Z,5.34
2023-02-01T16:00:55.057Z,5.37
2023-02-01T16:03:38.895Z,5.32
2023-02-01T16:06:27.252Z,5.38
2023-02-01T16:09:01.356Z,5.38
2023-02-01T16:11:33.474Z,5.36
2023-02-01T16:14:01.592Z,5.42
2023-02-01T16:16:30.275Z,5.38
2023-02-01T16:18:56.966Z,5.45
2023-02-01T16:21:24.146Z,5.37
2023-02-01T16:23:52.262Z,5.42
2023-02-01T16:26:19.789Z,5.47
2023-02-01T16:28:46.876Z,5.48
2023-02-01T16:31:22.057Z,5.55
2023-02-01T16:33:52.771Z,5.48
2023-02-01T16:36:20.061Z,5.43
2023-02-01T16:38:50.715Z,5.39
2023-02-01T16:41:20.826Z,5.35
2023-02-01T16:43:51.229Z,5.35
2023-02-01T16:46:22.690Z,5.33
2023-02-01T16:48:54.847Z,5.39
2023-02-01T16:51:22.064Z,5.34
2023-02-01T16:53:54.690Z,5.30
2023-02-01T16:56:24.725Z,5.30
2023-02-01T16:58:51.938Z,5.22
2023-02-01T17:01:20.321Z,3.98
2023-02-01T17:03:47.854Z,3.00
2023-02-01T17:06:18.043Z,2.65
2023-02-01T17:08:48.823Z,2.46
2023-02-01T17:11:15.549Z,2.12
2023-02-01T17:13:43.187Z,1.91
2023-02-01T17:16:21.907Z,1.55
2023-02-01T17:18:56.305Z,1.37
2023-02-01T17:21:23.399Z,1.21
2023-02-01T17:23:50.132Z,1.20
2023-02-01T17:26:16.656Z,1.22
2023-02-01T17:28:43.222Z,1.49
2023-02-01T17:31:16.017Z,1.73
2023-02-01T17:33:44.983Z,1.90
2023-02-01T17:36:15.232Z,2.00
2023-02-01T17:38:43.220Z,2.17
2023-02-01T17:41:14.794Z,2.20
2023-02-01T17:43:41.764Z,2.22
2023-02-01T17:46:15.622Z,2.27
2023-02-01T17:48:42.719Z,2.38
2023-02-01T17:51:29.352Z,2.47
2023-02-01T17:53:56.212Z,2.48
2023-02-01T17:56:25.124Z,2.55
2023-02-01T17:58:52.174Z,2.48
2023-02-01T18:01:21.868Z,2.47
2023-02-01T18:03:49.178Z,2.41
2023-02-01T18:06:18.917Z,2.27
2023-02-01T18:08:46.266Z,2.22
2023-02-01T18:11:33.538Z,2.21
2023-02-01T18:14:00.276Z,2.15
2023-02-01T18:16:30.161Z,2.17
2023-02-01T18:19:01.945Z,2.15
2023-02-01T18:21:33.937Z,2.03
2023-02-01T18:24:04.644Z,2.08
2023-02-01T18:26:31.294Z,2.18
2023-02-01T18:28:57.936Z,2.18
2023-02-01T18:31:30.549Z,2.25
2023-02-01T18:33:58.565Z,2.24
2023-02-01T18:36:26.663Z,2.22
2023-02-01T18:38:58.135Z,2.21
2023-02-01T18:41:25.620Z,2.27
2023-02-01T18:43:53.162Z,2.33
2023-02-01T18:46:21.927Z,2.35
2023-02-01T18:48:48.673Z,2.39
2023-02-01T18:51:20.479Z,2.40
2023-02-01T18:53:48.625Z,2.33
2023-02-01T18:56:18.477Z,2.44
2023-02-01T18:58:45.748Z,2.41
2023-02-01T19:01:21.280Z,2.48
2023-02-01T19:03:55.933Z,2.45
2023-02-01T19:06:26.628Z,2.50
2023-02-01T19:08:56.028Z,2.57
2023-02-01T19:11:22.856Z,2.58
2023-02-01T19:13:51.470Z,2.61
2023-02-01T19:16:18.246Z,2.67
2023-02-01T19:18:44.867Z,2.76
2023-02-01T19:21:13.449Z,2.74
2023-02-01T19:23:41.193Z,2.72
2023-02-01T19:26:15.782Z,2.76
2023-02-01T19:28:47.030Z,2.78
2023-02-01T19:31:14.111Z,2.84
2023-02-01T19:33:40.938Z,2.86
2023-02-01T19:36:09.990Z,2.88
2023-02-01T19:38:37.026Z,2.98
2023-02-01T19:41:03.682Z,3.04
2023-02-01T19:43:30.484Z,3.08
2023-02-01T19:45:57.658Z,3.08
2023-02-01T19:48:24.378Z,3.10
2023-02-01T19:50:51.375Z,3.07
2023-02-01T19:53:19.431Z,3.08
2023-02-01T19:55:46.741Z,3.17
2023-02-01T19:58:13.377Z,3.21
2023-02-01T20:00:39.229Z,3.17
2023-02-01T20:03:06.062Z,3.12
2023-02-01T20:05:32.761Z,2.94
2023-02-01T20:08:01.286Z,3.01
2023-02-01T20:10:28.000Z,2.90
2023-02-01T20:12:55.636Z,2.76
2023-02-01T20:15:25.070Z,2.73
2023-02-01T20:17:53.519Z,2.73
2023-02-01T20:20:20.094Z,2.77
2023-02-01T20:22:46.707Z,2.77
2023-02-01T20:25:13.554Z,2.85
2023-02-01T20:27:41.045Z,2.89
2023-02-01T20:30:08.635Z,2.86
2023-02-01T20:32:35.161Z,2.76
2023-02-01T20:35:01.857Z,2.59
2023-02-01T20:37:28.625Z,2.58
2023-02-01T20:39:55.315Z,2.61
2023-02-01T20:42:22.217Z,2.57
2023-02-01T20:44:48.827Z,2.59
2023-02-01T20:47:15.815Z,2.40
2023-02-01T20:49:42.475Z,2.40
2023-02-01T20:52:09.172Z,2.36
2023-02-01T20:54:35.929Z,2.35
2023-02-01T20:57:02.546Z,2.34
2023-02-01T20:59:29.093Z,2.27
2023-02-01T21:01:55.607Z,2.36
2023-02-01T21:04:27.640Z,2.40
2023-02-01T21:06:58.065Z,2.43
2023-02-01T21:09:25.694Z,2.37
2023-02-01T21:11:53.257Z,2.34
2023-02-01T21:14:20.733Z,2.33
2023-02-01T21:16:47.921Z,2.43
2023-02-01T21:19:14.620Z,2.38
2023-02-01T21:21:42.370Z,2.38
2023-02-01T21:24:09.334Z,2.52
2023-02-01T21:26:42.118Z,2.53
2023-02-01T21:29:11.981Z,2.51
2023-02-01T21:31:39.490Z,2.51
2023-02-01T21:34:07.101Z,2.59
2023-02-01T21:36:35.645Z,2.43
2023-02-01T21:39:04.998Z,2.55
2023-02-01T21:41:53.176Z,2.55
2023-02-01T21:44:20.174Z,2.69
2023-02-01T21:46:47.100Z,2.65
2023-02-01T21:49:14.028Z,2.68
2023-02-01T21:51:41.341Z,2.77
2023-02-01T21:54:09.700Z,2.75
2023-02-01T21:56:37.815Z,2.75
2023-02-01T21:59:04.875Z,2.68
2023-02-01T22:01:31.716Z,2.66
2023-02-01T22:03:58.452Z,2.69
2023-02-01T22:06:30.825Z,2.68
2023-02-01T22:08:57.855Z,2.65
2023-02-01T22:11:25.234Z,2.62
2023-02-01T22:13:52.016Z,2.52
2023-02-01T22:16:21.645Z,2.55
2023-02-01T22:18:50.256Z,2.61
2023-02-01T22:21:17.363Z,2.48
2023-02-01T22:23:44.217Z,2.55
2023-02-01T22:26:13.873Z,2.52
2023-02-01T22:28:40.666Z,2.51
2023-02-01T22:31:09.462Z,2.57
2023-02-01T22:33:36.592Z,2.62
2023-02-01T22:36:04.638Z,2.63
2023-02-01T22:38:32.668Z,2.62
2023-02-01T22:41:01.297Z,2.53
2023-02-01T22:43:28.669Z,2.51
2023-02-01T22:45:59.099Z,2.56
2023-02-01T22:48:25.853Z,2.43
2023-02-01T22:50:59.498Z,2.45
2023-02-01T22:53:26.787Z,2.36
2023-02-01T22:55:53.740Z,2.43
2023-02-01T22:58:20.673Z,2.43
2023-02-01T23:00:47.323Z,2.50
2023-02-01T23:03:13.992Z,2.48
2023-02-01T23:05:40.574Z,2.51
2023-02-01T23:08:07.307Z,2.46
2023-02-01T23:10:33.814Z,2.46
2023-02-01T23:13:00.316Z,2.46
2023-02-01T23:15:27.084Z,2.55
2023-02-01T23:17:53.686Z,2.69
2023-02-01T23:20:20.802Z,2.67
2023-02-01T23:22:48.981Z,2.64
2023-02-01T23:25:18.501Z,2.61
2023-02-01T23:27:45.181Z,2.66
2023-02-01T23:30:12.347Z,2.62
2023-02-01T23:32:38.913Z,2.56
2023-02-01T23:35:05.993Z,2.67
2023-02-01T23:37:32.683Z,2.62
2023-02-01T23:39:59.280Z,2.59
2023-02-01T23:42:25.907Z,2.65
2023-02-01T23:44:52.492Z,2.79
2023-02-01T23:47:19.089Z,2.87
2023-02-01T23:49:46.851Z,2.85
2023-02-01T23:52:13.559Z,2.85
2023-02-01T23:54:40.105Z,2.88
2023-02-01T23:57:07.087Z,2.87
2023-02-01T23:59:33.742Z,2.95
